Warning: A non-numeric value encountered in /home/tjeerqo264/domains/wsnoordbergum.nl/public_html/weather2/metar/wsMetarTxt.php on line 609

Webcam Zuidwest  Webcam Zuidwest


waarschuwing voor Onweer more information blitzortung!


Regen radar more information rain snow radar


Weerstation Alkmaar Centrum

Weerstation Luyksgestel

Website Noardburgum


U vindt ons ook hier:

Het Weer Aktueel

UK Metoffice

European Weather Network

Weather Underground

AWEKAS

Citizen Weather Observer Program (CWOP)

HAMweather, WeatherForYou, PWS Weather



Onweer van: 25-07-2021 14:00 tot: 23:00 waarschuwing voor: Onweer niveau: Geel info button

METAR rapporten vliegvelden


Warning: A non-numeric value encountered in /home/tjeerqo264/domains/wsnoordbergum.nl/public_html/weather2/metar/wsMetarTxt.php on line 609

Warning: A non-numeric value encountered in /home/tjeerqo264/domains/wsnoordbergum.nl/public_html/weather2/metar/wsMetarTxt.php on line 609

Warning: A non-numeric value encountered in /home/tjeerqo264/domains/wsnoordbergum.nl/public_html/weather2/metar/metarDisplay.php on line 166

Warning: A non-numeric value encountered in /home/tjeerqo264/domains/wsnoordbergum.nl/public_html/weather2/metar/wsMetarTxt.php on line 609

Warning: A non-numeric value encountered in /home/tjeerqo264/domains/wsnoordbergum.nl/public_html/weather2/metar/metarDisplay.php on line 166

Warning: A non-numeric value encountered in /home/tjeerqo264/domains/wsnoordbergum.nl/public_html/weather2/metar/wsMetarTxt.php on line 609

Warning: A non-numeric value encountered in /home/tjeerqo264/domains/wsnoordbergum.nl/public_html/weather2/metar/metarDisplay.php on line 166
   
EHLW - Leeuwarden Rnlaf, Netherlands
Afstand tot: W 17 km
Gewijzigd: 25-07-2021 16:55
Grotendeels bewolkt  
Grotendeels bewolkt  
   Wind: WZW 14.8 km/h
Wind: WZW 14.8 km/h
Temperatuur: 25°C
Dauwpunt: 19°C
Vochtigheid: 69%
Barometer: 1008 hPa
Bewolking: Grotendeels bewolkt
Zicht: meer dan 10 km
Bewolking: Licht bewolkt 2000 ft,
Gedeeltelijk bewolkt 2700 ft,
Grotendeels bewolkt 4900 ft
EHLW 251455Z AUTO 25008KT 210V310 9999 FEW020 SCT027 BKN049 25/19 Q1008 BLU
EHMA - Awg-1 Sea, Netherlands
Afstand tot: N 31 km
Gewijzigd: 25-07-2021 16:55
Licht bewolkt  
Licht bewolkt  
   Wind: Westen 16.7 km/h
Wind: Westen 16.7 km/h
Temperatuur: 22°C
Dauwpunt: 17°C
Vochtigheid: 73%
Barometer: 1008 hPa
Bewolking: Licht bewolkt
Zicht: meer dan 10 km
Bewolking: Licht bewolkt 1800 ft
EHMA 251455Z AUTO 26009KT 9999 FEW018CB 22/17 Q1008
EHGG - Groningen/Eelde, Netherlands
Afstand tot: OZO 40 km
Gewijzigd: 25-07-2021 16:55
Gedeeltelijk bewolkt  
Gedeeltelijk bewolkt  
   Wind: ZZW 13 km/h
Wind: ZZW 13 km/h
Temperatuur: 24°C
Dauwpunt: 17°C
Vochtigheid: 65%
Barometer: 1008 hPa
Bewolking: Gedeeltelijk bewolkt
Zicht: meer dan 10 km
Bewolking: Gedeeltelijk bewolkt
EHGG 251455Z AUTO 20007KT 9999 NSC 24/17 Q1008 TEMPO SCT040CB
EHVL - Vlieland Island, Netherlands
Afstand tot: W 72 km
Gewijzigd: 25-07-2021 16:55
Helder  
Helder  
   Wind: Westen 9.3 km/h
Wind: Westen 9.3 km/h
Temperatuur: 21°C
Dauwpunt: 17°C
Vochtigheid: 78%
Barometer: 1008 hPa
Bewolking: Helder
Zicht: meer dan 10 km
Bewolking: Helder
EHVL 251455Z AUTO 27005KT 9999 NCD 21/17 Q1008 BLU
EHMG - L9-Ff-1 Sea, Netherlands
Afstand tot: WNW 81 km
Gewijzigd: 25-07-2021 16:55
Gedeeltelijk bewolkt  
Gedeeltelijk bewolkt  
   Wind: ZW 24.1 km/h
Wind: ZW 24.1 km/h
Temperatuur: 18°C
Dauwpunt: 17°C
Vochtigheid: 94%
Barometer: 1009 hPa
Bewolking: Gedeeltelijk bewolkt
Zicht: 8 km
Bewolking: Gedeeltelijk bewolkt
EHMG 251455Z AUTO 23013KT 8000 NSC 18/17 Q1009
EHKD - De Kooy (navy), Netherlands
Afstand tot: WZW 89 km
Gewijzigd: 25-07-2021 16:55
Nevel, Licht bewolkt  
Nevel, Licht bewolkt  
   Wind: Westen 13 km/h
Wind: Westen 13 km/h
Temperatuur: 22°C
Dauwpunt: 17°C
Vochtigheid: 73%
Barometer: 1008 hPa
Bewolking: Licht bewolkt
Zicht: 7 km
Bewolking: Licht bewolkt 11000 ft
EHKD 251455Z AUTO 27007KT 230V320 7000 HZ FEW110 22/17 Q1008 WHT NOSIG

Script ontwikkeld door  Saratoga-weather.org Aangepast voor de template door  Weerstation Leuven

Apparatuur in gebruik:

Weerstation
Davis Vantage pro 2

Weerprogramma
Meteobridge

Weercomputer
Meteobridge Nano SD

Webleverancier
Versio

Davis Vantage pro 2

Meteobridge

Meteobridge Nano SD

Versio